6VG8 weather

Longview Heliport
Leesburg, Virginia, United States

Public forecast

Using degrees Fahrenheit for public forecast. Weather courtesy of forecast.io.

METAR (pilot weather report)

Closest report is Leesburg Executive Airport, 5.8 nm (10.8 km) SSW. Retrieved 2019/05/26 11:35 UTC (0 seconds ago):

KJYO 261135Z AUTO 25003KT 10SM CLR 21/20 A3005 RMK AO2

TAF (pilot weather forecast)

Closest forecast is Washington Dulles International Airport, 13.9 nm (25.7 km) SSE. Retrieved 2019/05/26 06:34 UTC (5 hours ago):

TAF KIAD 260532Z 2606/2712 18007KT P6SM SCT060 BKN200 FM260800 22004KT P6SM SCT045 FM261100 25004KT P6SM SCT250 FM261700 28008KT P6SM BKN040 FM262100 29009KT P6SM -SHRA VCTS BKN045CB FM270000 31007KT P6SM BKN060